sensor_id;sensor_type;location;lat;lon;timestamp;temperature;humidity
61201;DHT22;47065;52.898;6.992;2023-05-07T00:01:50;12.80;99.90
61201;DHT22;47065;52.898;6.992;2023-05-07T00:04:15;12.80;99.90
61201;DHT22;47065;52.898;6.992;2023-05-07T00:06:41;12.80;99.90
61201;DHT22;47065;52.898;6.992;2023-05-07T00:09:07;12.80;99.90
61201;DHT22;47065;52.898;6.992;2023-05-07T00:11:33;12.80;99.90
61201;DHT22;47065;52.898;6.992;2023-05-07T00:13:58;12.70;99.90
61201;DHT22;47065;52.898;6.992;2023-05-07T00:16:24;12.70;99.90
61201;DHT22;47065;52.898;6.992;2023-05-07T00:18:50;12.60;99.90
61201;DHT22;47065;52.898;6.992;2023-05-07T00:21:15;12.60;99.90
61201;DHT22;47065;52.898;6.992;2023-05-07T00:23:41;12.60;99.90
61201;DHT22;47065;52.898;6.992;2023-05-07T00:26:07;12.50;99.90
61201;DHT22;47065;52.898;6.992;2023-05-07T00:28:32;12.50;99.90
61201;DHT22;47065;52.898;6.992;2023-05-07T00:30:58;12.50;99.90
61201;DHT22;47065;52.898;6.992;2023-05-07T00:33:24;12.50;99.90
61201;DHT22;47065;52.898;6.992;2023-05-07T00:35:52;12.50;99.90
61201;DHT22;47065;52.898;6.992;2023-05-07T00:38:19;12.50;99.90
61201;DHT22;47065;52.898;6.992;2023-05-07T00:40:45;12.50;99.90
61201;DHT22;47065;52.898;6.992;2023-05-07T00:43:10;12.40;99.90
61201;DHT22;47065;52.898;6.992;2023-05-07T00:45:38;12.40;99.90
61201;DHT22;47065;52.898;6.992;2023-05-07T00:48:04;12.40;99.90
61201;DHT22;47065;52.898;6.992;2023-05-07T00:50:31;12.40;99.90
61201;DHT22;47065;52.898;6.992;2023-05-07T00:52:58;12.40;99.90
61201;DHT22;47065;52.898;6.992;2023-05-07T00:55:24;12.30;99.90
61201;DHT22;47065;52.898;6.992;2023-05-07T00:57:50;12.30;99.90
61201;DHT22;47065;52.898;6.992;2023-05-07T01:00:16;12.30;99.90
61201;DHT22;47065;52.898;6.992;2023-05-07T01:02:43;12.30;99.90
61201;DHT22;47065;52.898;6.992;2023-05-07T01:05:10;12.30;99.90
61201;DHT22;47065;52.898;6.992;2023-05-07T01:07:40;12.20;99.90
61201;DHT22;47065;52.898;6.992;2023-05-07T01:10:07;12.20;99.90
61201;DHT22;47065;52.898;6.992;2023-05-07T01:12:34;12.20;99.90
61201;DHT22;47065;52.898;6.992;2023-05-07T01:15:01;12.10;99.90
61201;DHT22;47065;52.898;6.992;2023-05-07T01:17:27;12.10;99.90
61201;DHT22;47065;52.898;6.992;2023-05-07T01:19:53;12.10;99.90
61201;DHT22;47065;52.898;6.992;2023-05-07T01:22:33;12.00;99.90
61201;DHT22;47065;52.898;6.992;2023-05-07T01:24:59;12.00;99.90
61201;DHT22;47065;52.898;6.992;2023-05-07T01:27:27;12.00;99.90
61201;DHT22;47065;52.898;6.992;2023-05-07T01:29:53;11.90;99.90
61201;DHT22;47065;52.898;6.992;2023-05-07T01:32:23;11.90;99.90
61201;DHT22;47065;52.898;6.992;2023-05-07T01:34:53;11.90;99.90
61201;DHT22;47065;52.898;6.992;2023-05-07T01:37:20;11.90;99.90
61201;DHT22;47065;52.898;6.992;2023-05-07T01:39:46;11.80;99.90
61201;DHT22;47065;52.898;6.992;2023-05-07T01:42:13;11.80;99.90
61201;DHT22;47065;52.898;6.992;2023-05-07T01:44:39;11.80;99.90
61201;DHT22;47065;52.898;6.992;2023-05-07T01:47:05;11.70;99.90
61201;DHT22;47065;52.898;6.992;2023-05-07T01:49:31;11.70;99.90
61201;DHT22;47065;52.898;6.992;2023-05-07T01:51:58;11.70;99.90
61201;DHT22;47065;52.898;6.992;2023-05-07T01:54:27;11.60;99.90
61201;DHT22;47065;52.898;6.992;2023-05-07T01:56:59;11.60;99.90
61201;DHT22;47065;52.898;6.992;2023-05-07T01:59:25;11.60;99.90
61201;DHT22;47065;52.898;6.992;2023-05-07T02:01:51;11.50;99.90
61201;DHT22;47065;52.898;6.992;2023-05-07T02:04:17;11.50;99.90
61201;DHT22;47065;52.898;6.992;2023-05-07T02:06:43;11.50;99.90
61201;DHT22;47065;52.898;6.992;2023-05-07T02:09:08;11.50;99.90
61201;DHT22;47065;52.898;6.992;2023-05-07T02:11:34;11.50;99.90
61201;DHT22;47065;52.898;6.992;2023-05-07T02:14:00;11.40;99.90
61201;DHT22;47065;52.898;6.992;2023-05-07T02:16:25;11.40;99.90
61201;DHT22;47065;52.898;6.992;2023-05-07T02:18:51;11.30;99.90
61201;DHT22;47065;52.898;6.992;2023-05-07T02:21:17;11.40;99.90
61201;DHT22;47065;52.898;6.992;2023-05-07T02:23:43;11.30;99.90
61201;DHT22;47065;52.898;6.992;2023-05-07T02:26:09;11.30;99.90
61201;DHT22;47065;52.898;6.992;2023-05-07T02:28:35;11.30;99.90
61201;DHT22;47065;52.898;6.992;2023-05-07T02:31:04;11.30;99.90
61201;DHT22;47065;52.898;6.992;2023-05-07T02:33:29;11.30;99.90
61201;DHT22;47065;52.898;6.992;2023-05-07T02:35:56;11.20;99.90
61201;DHT22;47065;52.898;6.992;2023-05-07T02:38:22;11.20;99.90
61201;DHT22;47065;52.898;6.992;2023-05-07T02:40:48;11.20;99.90
61201;DHT22;47065;52.898;6.992;2023-05-07T02:43:13;11.20;99.90
61201;DHT22;47065;52.898;6.992;2023-05-07T02:45:42;11.10;99.90
61201;DHT22;47065;52.898;6.992;2023-05-07T02:48:08;11.20;99.90
61201;DHT22;47065;52.898;6.992;2023-05-07T02:50:34;11.10;99.90
61201;DHT22;47065;52.898;6.992;2023-05-07T02:53:01;11.10;99.90
61201;DHT22;47065;52.898;6.992;2023-05-07T02:55:26;11.10;99.90
61201;DHT22;47065;52.898;6.992;2023-05-07T02:57:52;11.10;99.90
61201;DHT22;47065;52.898;6.992;2023-05-07T03:00:18;11.10;99.90
61201;DHT22;47065;52.898;6.992;2023-05-07T03:02:44;11.10;99.90
61201;DHT22;47065;52.898;6.992;2023-05-07T03:05:10;11.10;99.90
61201;DHT22;47065;52.898;6.992;2023-05-07T03:07:37;11.10;99.90
61201;DHT22;47065;52.898;6.992;2023-05-07T03:10:03;11.00;99.90
61201;DHT22;47065;52.898;6.992;2023-05-07T03:12:29;11.00;99.90
61201;DHT22;47065;52.898;6.992;2023-05-07T03:14:55;11.00;99.90
61201;DHT22;47065;52.898;6.992;2023-05-07T03:17:21;11.00;99.90
61201;DHT22;47065;52.898;6.992;2023-05-07T03:19:47;11.00;99.90
61201;DHT22;47065;52.898;6.992;2023-05-07T03:22:13;11.00;99.90
61201;DHT22;47065;52.898;6.992;2023-05-07T03:24:38;11.00;99.90
61201;DHT22;47065;52.898;6.992;2023-05-07T03:27:04;11.00;99.90
61201;DHT22;47065;52.898;6.992;2023-05-07T03:29:29;11.00;99.90
61201;DHT22;47065;52.898;6.992;2023-05-07T03:31:55;11.00;99.90
61201;DHT22;47065;52.898;6.992;2023-05-07T03:34:21;11.00;99.90
61201;DHT22;47065;52.898;6.992;2023-05-07T03:36:50;10.90;99.90
61201;DHT22;47065;52.898;6.992;2023-05-07T03:39:16;10.90;99.90
61201;DHT22;47065;52.898;6.992;2023-05-07T03:41:42;10.90;99.90
61201;DHT22;47065;52.898;6.992;2023-05-07T03:44:07;10.90;99.90
61201;DHT22;47065;52.898;6.992;2023-05-07T03:46:33;10.90;99.90
61201;DHT22;47065;52.898;6.992;2023-05-07T03:48:59;10.90;99.90
61201;DHT22;47065;52.898;6.992;2023-05-07T03:51:25;10.90;99.90
61201;DHT22;47065;52.898;6.992;2023-05-07T03:53:52;10.90;99.90
61201;DHT22;47065;52.898;6.992;2023-05-07T03:56:25;10.80;99.90
61201;DHT22;47065;52.898;6.992;2023-05-07T03:58:52;10.90;99.90
61201;DHT22;47065;52.898;6.992;2023-05-07T04:01:17;10.80;99.90
61201;DHT22;47065;52.898;6.992;2023-05-07T04:03:43;10.90;99.90
61201;DHT22;47065;52.898;6.992;2023-05-07T04:06:09;10.80;99.90
61201;DHT22;47065;52.898;6.992;2023-05-07T04:08:34;10.90;99.90
61201;DHT22;47065;52.898;6.992;2023-05-07T04:11:00;10.80;99.90
61201;DHT22;47065;52.898;6.992;2023-05-07T04:13:26;10.90;99.90
61201;DHT22;47065;52.898;6.992;2023-05-07T04:15:52;10.80;99.90
61201;DHT22;47065;52.898;6.992;2023-05-07T04:18:18;10.80;99.90
61201;DHT22;47065;52.898;6.992;2023-05-07T04:20:43;10.80;99.90
61201;DHT22;47065;52.898;6.992;2023-05-07T04:23:09;10.80;99.90
61201;DHT22;47065;52.898;6.992;2023-05-07T04:25:35;10.80;99.90
61201;DHT22;47065;52.898;6.992;2023-05-07T04:28:01;10.80;99.90
61201;DHT22;47065;52.898;6.992;2023-05-07T04:30:27;10.90;99.90
61201;DHT22;47065;52.898;6.992;2023-05-07T04:32:52;10.80;99.90
61201;DHT22;47065;52.898;6.992;2023-05-07T04:35:18;10.80;99.90
61201;DHT22;47065;52.898;6.992;2023-05-07T04:37:44;10.80;99.90
61201;DHT22;47065;52.898;6.992;2023-05-07T04:40:10;10.80;99.90
61201;DHT22;47065;52.898;6.992;2023-05-07T04:42:36;10.80;99.90
61201;DHT22;47065;52.898;6.992;2023-05-07T04:45:02;10.80;99.90
61201;DHT22;47065;52.898;6.992;2023-05-07T04:47:28;10.80;99.90
61201;DHT22;47065;52.898;6.992;2023-05-07T04:49:53;10.80;99.90
61201;DHT22;47065;52.898;6.992;2023-05-07T04:52:22;10.80;99.90
61201;DHT22;47065;52.898;6.992;2023-05-07T04:54:47;10.80;99.90
61201;DHT22;47065;52.898;6.992;2023-05-07T04:57:13;10.90;99.90
61201;DHT22;47065;52.898;6.992;2023-05-07T04:59:38;10.90;99.90
61201;DHT22;47065;52.898;6.992;2023-05-07T05:02:04;10.90;99.90
61201;DHT22;47065;52.898;6.992;2023-05-07T05:04:30;10.90;99.90
61201;DHT22;47065;52.898;6.992;2023-05-07T05:06:55;10.90;99.90
61201;DHT22;47065;52.898;6.992;2023-05-07T05:09:21;10.90;99.90
61201;DHT22;47065;52.898;6.992;2023-05-07T05:11:47;10.90;99.90
61201;DHT22;47065;52.898;6.992;2023-05-07T05:14:12;10.90;99.90
61201;DHT22;47065;52.898;6.992;2023-05-07T05:16:38;10.90;99.90
61201;DHT22;47065;52.898;6.992;2023-05-07T05:19:04;10.90;99.90
61201;DHT22;47065;52.898;6.992;2023-05-07T05:21:30;10.90;99.90
61201;DHT22;47065;52.898;6.992;2023-05-07T05:23:56;10.90;99.90
61201;DHT22;47065;52.898;6.992;2023-05-07T05:26:21;11.00;99.90
61201;DHT22;47065;52.898;6.992;2023-05-07T05:28:47;11.00;99.90
61201;DHT22;47065;52.898;6.992;2023-05-07T05:31:12;11.00;99.90
61201;DHT22;47065;52.898;6.992;2023-05-07T05:33:39;11.00;99.90
61201;DHT22;47065;52.898;6.992;2023-05-07T05:36:05;11.00;99.90
61201;DHT22;47065;52.898;6.992;2023-05-07T05:38:31;11.00;99.90
61201;DHT22;47065;52.898;6.992;2023-05-07T05:41:00;11.10;99.90
61201;DHT22;47065;52.898;6.992;2023-05-07T05:43:25;11.00;99.90
61201;DHT22;47065;52.898;6.992;2023-05-07T05:45:51;11.10;99.90
61201;DHT22;47065;52.898;6.992;2023-05-07T05:48:16;11.10;99.90
61201;DHT22;47065;52.898;6.992;2023-05-07T05:50:42;11.10;99.90
61201;DHT22;47065;52.898;6.992;2023-05-07T05:53:08;11.20;99.90
61201;DHT22;47065;52.898;6.992;2023-05-07T05:55:34;11.20;99.90
61201;DHT22;47065;52.898;6.992;2023-05-07T05:58:02;11.20;99.90
61201;DHT22;47065;52.898;6.992;2023-05-07T06:00:28;11.20;99.90
61201;DHT22;47065;52.898;6.992;2023-05-07T06:02:54;11.20;99.90
61201;DHT22;47065;52.898;6.992;2023-05-07T06:05:20;11.30;99.90
61201;DHT22;47065;52.898;6.992;2023-05-07T06:07:45;11.30;99.90
61201;DHT22;47065;52.898;6.992;2023-05-07T06:10:11;11.30;99.90
61201;DHT22;47065;52.898;6.992;2023-05-07T06:12:37;11.40;99.90
61201;DHT22;47065;52.898;6.992;2023-05-07T06:15:03;11.40;99.90
61201;DHT22;47065;52.898;6.992;2023-05-07T06:17:29;11.40;99.90
61201;DHT22;47065;52.898;6.992;2023-05-07T06:19:54;11.40;99.90
61201;DHT22;47065;52.898;6.992;2023-05-07T06:22:20;11.40;99.90
61201;DHT22;47065;52.898;6.992;2023-05-07T06:24:46;11.50;99.90
61201;DHT22;47065;52.898;6.992;2023-05-07T06:27:11;11.50;99.90
61201;DHT22;47065;52.898;6.992;2023-05-07T06:29:37;11.50;99.90
61201;DHT22;47065;52.898;6.992;2023-05-07T06:32:09;11.60;99.90
61201;DHT22;47065;52.898;6.992;2023-05-07T06:34:35;11.60;99.90
61201;DHT22;47065;52.898;6.992;2023-05-07T06:37:02;11.60;99.90
61201;DHT22;47065;52.898;6.992;2023-05-07T06:39:27;11.70;99.90
61201;DHT22;47065;52.898;6.992;2023-05-07T06:41:53;11.70;99.90
61201;DHT22;47065;52.898;6.992;2023-05-07T06:44:19;11.70;99.90
61201;DHT22;47065;52.898;6.992;2023-05-07T06:46:45;11.70;99.90
61201;DHT22;47065;52.898;6.992;2023-05-07T06:49:12;11.70;99.90
61201;DHT22;47065;52.898;6.992;2023-05-07T06:51:41;11.70;99.90
61201;DHT22;47065;52.898;6.992;2023-05-07T06:54:06;11.80;99.90
61201;DHT22;47065;52.898;6.992;2023-05-07T06:56:33;11.80;99.90
61201;DHT22;47065;52.898;6.992;2023-05-07T06:59:00;11.70;99.90
61201;DHT22;47065;52.898;6.992;2023-05-07T07:01:26;11.70;99.90
61201;DHT22;47065;52.898;6.992;2023-05-07T07:03:51;11.80;99.90
61201;DHT22;47065;52.898;6.992;2023-05-07T07:06:17;11.70;99.90
61201;DHT22;47065;52.898;6.992;2023-05-07T07:08:43;11.80;99.90
61201;DHT22;47065;52.898;6.992;2023-05-07T07:11:09;11.90;99.90
61201;DHT22;47065;52.898;6.992;2023-05-07T07:13:35;11.90;99.90
61201;DHT22;47065;52.898;6.992;2023-05-07T07:16:01;11.90;99.90
61201;DHT22;47065;52.898;6.992;2023-05-07T07:18:27;11.90;99.90
61201;DHT22;47065;52.898;6.992;2023-05-07T07:20:52;12.00;99.90
61201;DHT22;47065;52.898;6.992;2023-05-07T07:23:18;12.00;99.90
61201;DHT22;47065;52.898;6.992;2023-05-07T07:25:44;12.10;99.90
61201;DHT22;47065;52.898;6.992;2023-05-07T07:28:10;12.20;99.90
61201;DHT22;47065;52.898;6.992;2023-05-07T07:30:36;12.20;99.90
61201;DHT22;47065;52.898;6.992;2023-05-07T07:33:02;12.30;99.90
61201;DHT22;47065;52.898;6.992;2023-05-07T07:35:29;12.40;99.90
61201;DHT22;47065;52.898;6.992;2023-05-07T07:37:55;12.40;99.90
61201;DHT22;47065;52.898;6.992;2023-05-07T07:40:21;12.40;99.90
61201;DHT22;47065;52.898;6.992;2023-05-07T07:42:46;12.40;99.90
61201;DHT22;47065;52.898;6.992;2023-05-07T07:45:12;12.50;99.90
61201;DHT22;47065;52.898;6.992;2023-05-07T07:47:41;12.60;99.90
61201;DHT22;47065;52.898;6.992;2023-05-07T07:50:07;12.60;99.90
61201;DHT22;47065;52.898;6.992;2023-05-07T07:52:33;12.70;99.90
61201;DHT22;47065;52.898;6.992;2023-05-07T07:54:59;12.80;99.90
61201;DHT22;47065;52.898;6.992;2023-05-07T07:57:24;12.90;99.90
61201;DHT22;47065;52.898;6.992;2023-05-07T07:59:50;13.00;99.90
61201;DHT22;47065;52.898;6.992;2023-05-07T08:02:16;13.10;99.90
61201;DHT22;47065;52.898;6.992;2023-05-07T08:04:42;13.10;99.90
61201;DHT22;47065;52.898;6.992;2023-05-07T08:07:09;13.10;99.90
61201;DHT22;47065;52.898;6.992;2023-05-07T08:09:36;13.10;99.90
61201;DHT22;47065;52.898;6.992;2023-05-07T08:12:02;13.20;99.90
61201;DHT22;47065;52.898;6.992;2023-05-07T08:14:28;13.20;99.90
61201;DHT22;47065;52.898;6.992;2023-05-07T08:16:54;13.20;99.90
61201;DHT22;47065;52.898;6.992;2023-05-07T08:19:21;13.30;99.90
61201;DHT22;47065;52.898;6.992;2023-05-07T08:21:47;13.30;99.90
61201;DHT22;47065;52.898;6.992;2023-05-07T08:24:14;13.30;99.90
61201;DHT22;47065;52.898;6.992;2023-05-07T08:26:40;13.30;99.90
61201;DHT22;47065;52.898;6.992;2023-05-07T08:29:05;13.50;99.90
61201;DHT22;47065;52.898;6.992;2023-05-07T08:31:31;13.60;99.90
61201;DHT22;47065;52.898;6.992;2023-05-07T08:33:57;13.70;99.90
61201;DHT22;47065;52.898;6.992;2023-05-07T08:36:23;13.90;99.90
61201;DHT22;47065;52.898;6.992;2023-05-07T08:38:49;14.00;99.90
61201;DHT22;47065;52.898;6.992;2023-05-07T08:41:15;14.20;99.90
61201;DHT22;47065;52.898;6.992;2023-05-07T08:43:41;14.40;99.90
61201;DHT22;47065;52.898;6.992;2023-05-07T08:46:11;14.50;99.90
61201;DHT22;47065;52.898;6.992;2023-05-07T08:48:37;14.50;99.90
61201;DHT22;47065;52.898;6.992;2023-05-07T08:51:03;14.50;99.90
61201;DHT22;47065;52.898;6.992;2023-05-07T08:53:29;14.60;99.90
61201;DHT22;47065;52.898;6.992;2023-05-07T08:55:55;14.70;99.90
61201;DHT22;47065;52.898;6.992;2023-05-07T08:58:20;14.90;99.90
61201;DHT22;47065;52.898;6.992;2023-05-07T09:00:47;15.10;99.90
61201;DHT22;47065;52.898;6.992;2023-05-07T09:03:12;15.30;99.90
61201;DHT22;47065;52.898;6.992;2023-05-07T09:05:39;15.40;99.90
61201;DHT22;47065;52.898;6.992;2023-05-07T09:08:07;15.40;99.90
61201;DHT22;47065;52.898;6.992;2023-05-07T09:10:33;15.50;99.90
61201;DHT22;47065;52.898;6.992;2023-05-07T09:12:59;15.50;99.90
61201;DHT22;47065;52.898;6.992;2023-05-07T09:15:25;15.50;99.90
61201;DHT22;47065;52.898;6.992;2023-05-07T09:17:51;15.40;99.90
61201;DHT22;47065;52.898;6.992;2023-05-07T09:20:16;15.50;99.90
61201;DHT22;47065;52.898;6.992;2023-05-07T09:22:42;15.50;99.90
61201;DHT22;47065;52.898;6.992;2023-05-07T09:25:09;15.70;99.90
61201;DHT22;47065;52.898;6.992;2023-05-07T09:27:35;15.80;99.90
61201;DHT22;47065;52.898;6.992;2023-05-07T09:30:07;15.90;99.90
61201;DHT22;47065;52.898;6.992;2023-05-07T09:32:36;16.10;99.90
61201;DHT22;47065;52.898;6.992;2023-05-07T09:35:05;16.30;99.90
61201;DHT22;47065;52.898;6.992;2023-05-07T09:37:31;16.50;99.90
61201;DHT22;47065;52.898;6.992;2023-05-07T09:40:01;16.70;99.90
61201;DHT22;47065;52.898;6.992;2023-05-07T09:42:27;16.90;99.90
61201;DHT22;47065;52.898;6.992;2023-05-07T09:44:53;17.20;99.90
61201;DHT22;47065;52.898;6.992;2023-05-07T09:47:19;17.60;99.90
61201;DHT22;47065;52.898;6.992;2023-05-07T09:49:47;18.30;99.90
61201;DHT22;47065;52.898;6.992;2023-05-07T09:52:14;19.00;99.90
61201;DHT22;47065;52.898;6.992;2023-05-07T09:54:41;19.70;99.90
61201;DHT22;47065;52.898;6.992;2023-05-07T09:57:10;20.40;99.90
61201;DHT22;47065;52.898;6.992;2023-05-07T09:59:37;20.90;99.90
61201;DHT22;47065;52.898;6.992;2023-05-07T10:02:04;21.30;99.90
61201;DHT22;47065;52.898;6.992;2023-05-07T10:04:31;21.50;99.90
61201;DHT22;47065;52.898;6.992;2023-05-07T10:06:57;21.40;99.90
61201;DHT22;47065;52.898;6.992;2023-05-07T10:09:25;21.30;99.90
61201;DHT22;47065;52.898;6.992;2023-05-07T10:11:52;21.20;99.90
61201;DHT22;47065;52.898;6.992;2023-05-07T10:14:20;21.00;99.90
61201;DHT22;47065;52.898;6.992;2023-05-07T10:16:47;21.00;99.90
61201;DHT22;47065;52.898;6.992;2023-05-07T10:19:14;20.80;99.90
61201;DHT22;47065;52.898;6.992;2023-05-07T10:21:44;20.60;99.90
61201;DHT22;47065;52.898;6.992;2023-05-07T10:24:21;20.40;99.90
61201;DHT22;47065;52.898;6.992;2023-05-07T10:26:49;20.30;99.90
61201;DHT22;47065;52.898;6.992;2023-05-07T10:29:33;20.20;99.90
61201;DHT22;47065;52.898;6.992;2023-05-07T10:34:56;20.10;99.90
61201;DHT22;47065;52.898;6.992;2023-05-07T10:37:25;20.00;99.90
61201;DHT22;47065;52.898;6.992;2023-05-07T10:39:51;19.90;99.90
61201;DHT22;47065;52.898;6.992;2023-05-07T10:42:17;19.90;99.90
61201;DHT22;47065;52.898;6.992;2023-05-07T10:44:43;19.80;99.90
61201;DHT22;47065;52.898;6.992;2023-05-07T10:47:13;19.80;99.90
61201;DHT22;47065;52.898;6.992;2023-05-07T10:52:20;19.50;99.90
61201;DHT22;47065;52.898;6.992;2023-05-07T10:54:46;19.50;99.90
61201;DHT22;47065;52.898;6.992;2023-05-07T10:59:56;19.40;99.90
61201;DHT22;47065;52.898;6.992;2023-05-07T11:02:24;19.50;99.90
61201;DHT22;47065;52.898;6.992;2023-05-07T11:05:21;19.50;99.90
61201;DHT22;47065;52.898;6.992;2023-05-07T11:08:00;19.50;99.90
61201;DHT22;47065;52.898;6.992;2023-05-07T11:10:55;19.60;99.90
61201;DHT22;47065;52.898;6.992;2023-05-07T11:13:44;19.70;99.90
61201;DHT22;47065;52.898;6.992;2023-05-07T11:16:20;19.80;99.90
61201;DHT22;47065;52.898;6.992;2023-05-07T11:18:50;20.00;99.90
61201;DHT22;47065;52.898;6.992;2023-05-07T11:21:35;20.00;99.90
61201;DHT22;47065;52.898;6.992;2023-05-07T11:24:04;20.00;99.90
61201;DHT22;47065;52.898;6.992;2023-05-07T11:26:45;20.10;99.90
61201;DHT22;47065;52.898;6.992;2023-05-07T11:29:15;20.20;99.90
61201;DHT22;47065;52.898;6.992;2023-05-07T11:31:42;20.30;99.90
61201;DHT22;47065;52.898;6.992;2023-05-07T11:34:08;20.30;99.90
61201;DHT22;47065;52.898;6.992;2023-05-07T11:36:34;20.40;99.90
61201;DHT22;47065;52.898;6.992;2023-05-07T11:38:59;20.50;99.90
61201;DHT22;47065;52.898;6.992;2023-05-07T11:41:38;20.50;99.90
61201;DHT22;47065;52.898;6.992;2023-05-07T11:44:03;20.50;99.90
61201;DHT22;47065;52.898;6.992;2023-05-07T11:46:30;20.60;99.90
61201;DHT22;47065;52.898;6.992;2023-05-07T11:48:56;20.60;99.90
61201;DHT22;47065;52.898;6.992;2023-05-07T11:51:24;20.60;99.90
61201;DHT22;47065;52.898;6.992;2023-05-07T11:53:50;20.70;99.90
61201;DHT22;47065;52.898;6.992;2023-05-07T11:56:17;20.90;99.90
61201;DHT22;47065;52.898;6.992;2023-05-07T11:58:44;21.00;99.90
61201;DHT22;47065;52.898;6.992;2023-05-07T12:01:11;21.10;99.90
61201;DHT22;47065;52.898;6.992;2023-05-07T12:03:40;21.20;99.90
61201;DHT22;47065;52.898;6.992;2023-05-07T12:06:10;21.30;99.90
61201;DHT22;47065;52.898;6.992;2023-05-07T12:08:38;21.30;99.90
61201;DHT22;47065;52.898;6.992;2023-05-07T12:11:07;21.30;99.90
61201;DHT22;47065;52.898;6.992;2023-05-07T12:13:34;21.30;99.90
61201;DHT22;47065;52.898;6.992;2023-05-07T12:15:59;21.30;99.90
61201;DHT22;47065;52.898;6.992;2023-05-07T12:18:26;21.20;99.90
61201;DHT22;47065;52.898;6.992;2023-05-07T12:20:53;21.20;99.90
61201;DHT22;47065;52.898;6.992;2023-05-07T12:23:19;21.20;99.90
61201;DHT22;47065;52.898;6.992;2023-05-07T12:25:45;21.20;99.90
61201;DHT22;47065;52.898;6.992;2023-05-07T12:28:18;21.30;99.90
61201;DHT22;47065;52.898;6.992;2023-05-07T12:30:46;21.30;99.90
61201;DHT22;47065;52.898;6.992;2023-05-07T12:33:12;21.30;99.90
61201;DHT22;47065;52.898;6.992;2023-05-07T12:35:40;21.30;99.90
61201;DHT22;47065;52.898;6.992;2023-05-07T12:38:12;21.20;99.90
61201;DHT22;47065;52.898;6.992;2023-05-07T12:40:40;21.20;99.90
61201;DHT22;47065;52.898;6.992;2023-05-07T12:43:06;21.20;99.90
61201;DHT22;47065;52.898;6.992;2023-05-07T12:45:37;21.30;99.90
61201;DHT22;47065;52.898;6.992;2023-05-07T12:48:06;21.40;99.90
61201;DHT22;47065;52.898;6.992;2023-05-07T12:50:32;21.30;97.00
61201;DHT22;47065;52.898;6.992;2023-05-07T12:52:58;21.30;99.90
61201;DHT22;47065;52.898;6.992;2023-05-07T12:55:25;21.20;99.90
61201;DHT22;47065;52.898;6.992;2023-05-07T12:57:51;21.20;99.90
61201;DHT22;47065;52.898;6.992;2023-05-07T13:00:38;21.20;99.90
61201;DHT22;47065;52.898;6.992;2023-05-07T13:03:04;21.20;99.90
61201;DHT22;47065;52.898;6.992;2023-05-07T13:05:31;21.20;99.90
61201;DHT22;47065;52.898;6.992;2023-05-07T13:07:57;21.30;99.90
61201;DHT22;47065;52.898;6.992;2023-05-07T13:10:23;21.30;99.90
61201;DHT22;47065;52.898;6.992;2023-05-07T13:12:49;21.30;99.90
61201;DHT22;47065;52.898;6.992;2023-05-07T13:15:16;21.30;99.90
61201;DHT22;47065;52.898;6.992;2023-05-07T13:17:41;21.30;99.80
61201;DHT22;47065;52.898;6.992;2023-05-07T13:20:09;21.30;99.90
61201;DHT22;47065;52.898;6.992;2023-05-07T13:22:34;21.30;99.90
61201;DHT22;47065;52.898;6.992;2023-05-07T13:25:00;21.30;99.40
61201;DHT22;47065;52.898;6.992;2023-05-07T13:27:26;21.20;99.90
61201;DHT22;47065;52.898;6.992;2023-05-07T13:29:51;21.20;99.90
61201;DHT22;47065;52.898;6.992;2023-05-07T13:32:17;21.20;99.50
61201;DHT22;47065;52.898;6.992;2023-05-07T13:34:43;21.10;99.90
61201;DHT22;47065;52.898;6.992;2023-05-07T13:37:08;21.10;99.90
61201;DHT22;47065;52.898;6.992;2023-05-07T13:39:34;21.00;99.60
61201;DHT22;47065;52.898;6.992;2023-05-07T13:42:00;20.90;99.10
61201;DHT22;47065;52.898;6.992;2023-05-07T13:44:26;20.80;98.60
61201;DHT22;47065;52.898;6.992;2023-05-07T13:46:52;20.70;98.60
61201;DHT22;47065;52.898;6.992;2023-05-07T13:49:17;20.60;99.10
61201;DHT22;47065;52.898;6.992;2023-05-07T13:51:43;20.50;99.90
61201;DHT22;47065;52.898;6.992;2023-05-07T13:54:09;20.40;99.90
61201;DHT22;47065;52.898;6.992;2023-05-07T13:56:34;20.40;99.90
61201;DHT22;47065;52.898;6.992;2023-05-07T13:59:00;20.30;99.90
61201;DHT22;47065;52.898;6.992;2023-05-07T14:01:26;20.20;99.90
61201;DHT22;47065;52.898;6.992;2023-05-07T14:03:52;20.20;99.90
61201;DHT22;47065;52.898;6.992;2023-05-07T14:06:18;20.10;99.90
61201;DHT22;47065;52.898;6.992;2023-05-07T14:08:43;20.10;99.90
61201;DHT22;47065;52.898;6.992;2023-05-07T14:11:09;20.10;99.90
61201;DHT22;47065;52.898;6.992;2023-05-07T14:13:34;20.10;99.90
61201;DHT22;47065;52.898;6.992;2023-05-07T14:16:00;20.10;99.90
61201;DHT22;47065;52.898;6.992;2023-05-07T14:18:26;20.10;99.90
61201;DHT22;47065;52.898;6.992;2023-05-07T14:20:52;20.20;99.90
61201;DHT22;47065;52.898;6.992;2023-05-07T14:23:17;20.30;99.90
61201;DHT22;47065;52.898;6.992;2023-05-07T14:25:45;20.30;99.90
61201;DHT22;47065;52.898;6.992;2023-05-07T14:28:13;20.30;99.90
61201;DHT22;47065;52.898;6.992;2023-05-07T14:30:38;20.40;99.90
61201;DHT22;47065;52.898;6.992;2023-05-07T14:33:04;20.50;99.90
61201;DHT22;47065;52.898;6.992;2023-05-07T14:35:30;20.50;99.90
61201;DHT22;47065;52.898;6.992;2023-05-07T14:37:58;20.60;99.90
61201;DHT22;47065;52.898;6.992;2023-05-07T14:40:24;20.60;99.90
61201;DHT22;47065;52.898;6.992;2023-05-07T14:42:49;20.50;99.90
61201;DHT22;47065;52.898;6.992;2023-05-07T14:45:15;20.50;99.90
61201;DHT22;47065;52.898;6.992;2023-05-07T14:47:40;20.40;99.90
61201;DHT22;47065;52.898;6.992;2023-05-07T14:50:06;20.40;99.90
61201;DHT22;47065;52.898;6.992;2023-05-07T14:52:32;20.30;99.90
61201;DHT22;47065;52.898;6.992;2023-05-07T14:54:57;20.10;99.90
61201;DHT22;47065;52.898;6.992;2023-05-07T14:57:23;20.00;99.90
61201;DHT22;47065;52.898;6.992;2023-05-07T14:59:49;19.90;99.90
61201;DHT22;47065;52.898;6.992;2023-05-07T15:02:14;19.80;99.90
61201;DHT22;47065;52.898;6.992;2023-05-07T15:04:40;19.70;99.90
61201;DHT22;47065;52.898;6.992;2023-05-07T15:07:14;19.60;99.90
61201;DHT22;47065;52.898;6.992;2023-05-07T15:09:41;19.40;99.90
61201;DHT22;47065;52.898;6.992;2023-05-07T15:12:07;19.30;99.90
61201;DHT22;47065;52.898;6.992;2023-05-07T15:14:33;19.20;99.90
61201;DHT22;47065;52.898;6.992;2023-05-07T15:16:58;19.00;99.90
61201;DHT22;47065;52.898;6.992;2023-05-07T15:19:24;18.90;99.90
61201;DHT22;47065;52.898;6.992;2023-05-07T15:21:54;18.80;99.90
61201;DHT22;47065;52.898;6.992;2023-05-07T15:24:22;18.70;99.90
61201;DHT22;47065;52.898;6.992;2023-05-07T15:26:48;18.50;99.90
61201;DHT22;47065;52.898;6.992;2023-05-07T15:29:13;18.40;99.90
61201;DHT22;47065;52.898;6.992;2023-05-07T15:31:39;18.30;99.90
61201;DHT22;47065;52.898;6.992;2023-05-07T15:34:05;18.20;99.90
61201;DHT22;47065;52.898;6.992;2023-05-07T15:36:30;18.10;99.90